sensor_id;sensor_type;location;lat;lon;timestamp;pressure;altitude;pressure_sealevel;temperature
70533;BMP180;58088;51.186;17.130;2023-02-02T00:01:35;99468.60;;;6.00
70533;BMP180;58088;51.186;17.130;2023-02-02T00:04:03;99467.80;;;6.00
70533;BMP180;58088;51.186;17.130;2023-02-02T00:06:30;99464.60;;;6.00
70533;BMP180;58088;51.186;17.130;2023-02-02T00:09:00;99458.00;;;6.00
70533;BMP180;58088;51.186;17.130;2023-02-02T00:11:27;99463.60;;;6.00
70533;BMP180;58088;51.186;17.130;2023-02-02T00:13:53;99471.20;;;6.00
70533;BMP180;58088;51.186;17.130;2023-02-02T00:18:54;99468.40;;;6.00
70533;BMP180;58088;51.186;17.130;2023-02-02T00:21:21;99460.00;;;6.00
70533;BMP180;58088;51.186;17.130;2023-02-02T00:23:48;99470.60;;;6.00
70533;BMP180;58088;51.186;17.130;2023-02-02T00:26:15;99461.20;;;6.00
70533;BMP180;58088;51.186;17.130;2023-02-02T00:28:42;99468.20;;;6.00
70533;BMP180;58088;51.186;17.130;2023-02-02T00:31:09;99468.60;;;6.00
70533;BMP180;58088;51.186;17.130;2023-02-02T00:33:35;99472.20;;;6.00
70533;BMP180;58088;51.186;17.130;2023-02-02T00:36:02;99468.80;;;6.00
70533;BMP180;58088;51.186;17.130;2023-02-02T00:38:30;99471.20;;;6.02
70533;BMP180;58088;51.186;17.130;2023-02-02T00:40:57;99471.40;;;6.04
70533;BMP180;58088;51.186;17.130;2023-02-02T00:43:23;99476.40;;;6.06
70533;BMP180;58088;51.186;17.130;2023-02-02T00:45:49;99474.20;;;6.10
70533;BMP180;58088;51.186;17.130;2023-02-02T00:48:16;99472.20;;;6.10
70533;BMP180;58088;51.186;17.130;2023-02-02T00:50:42;99476.20;;;6.10
70533;BMP180;58088;51.186;17.130;2023-02-02T00:53:08;99474.60;;;6.10
70533;BMP180;58088;51.186;17.130;2023-02-02T00:55:34;99476.60;;;6.10
70533;BMP180;58088;51.186;17.130;2023-02-02T00:58:00;99477.20;;;6.10
70533;BMP180;58088;51.186;17.130;2023-02-02T01:00:27;99479.40;;;6.20
70533;BMP180;58088;51.186;17.130;2023-02-02T01:02:54;99481.80;;;6.20
70533;BMP180;58088;51.186;17.130;2023-02-02T01:05:22;99474.20;;;6.18
70533;BMP180;58088;51.186;17.130;2023-02-02T01:07:48;99470.40;;;6.20
70533;BMP180;58088;51.186;17.130;2023-02-02T01:10:17;99473.60;;;6.20
70533;BMP180;58088;51.186;17.130;2023-02-02T01:12:44;99476.00;;;6.20
70533;BMP180;58088;51.186;17.130;2023-02-02T01:15:11;99481.80;;;6.20
70533;BMP180;58088;51.186;17.130;2023-02-02T01:17:39;99480.20;;;6.20
70533;BMP180;58088;51.186;17.130;2023-02-02T01:20:07;99474.60;;;6.20
70533;BMP180;58088;51.186;17.130;2023-02-02T01:22:33;99482.60;;;6.20
70533;BMP180;58088;51.186;17.130;2023-02-02T01:25:00;99482.80;;;6.20
70533;BMP180;58088;51.186;17.130;2023-02-02T01:27:26;99480.40;;;6.20
70533;BMP180;58088;51.186;17.130;2023-02-02T01:29:52;99487.20;;;6.20
70533;BMP180;58088;51.186;17.130;2023-02-02T01:32:19;99485.80;;;6.20
70533;BMP180;58088;51.186;17.130;2023-02-02T01:34:45;99484.60;;;6.20
70533;BMP180;58088;51.186;17.130;2023-02-02T01:37:12;99493.60;;;6.20
70533;BMP180;58088;51.186;17.130;2023-02-02T01:39:38;99479.00;;;6.20
70533;BMP180;58088;51.186;17.130;2023-02-02T01:42:13;99488.20;;;6.20
70533;BMP180;58088;51.186;17.130;2023-02-02T01:45:23;99483.00;;;6.20
70533;BMP180;58088;51.186;17.130;2023-02-02T01:47:56;99482.40;;;6.20
70533;BMP180;58088;51.186;17.130;2023-02-02T01:50:30;99471.20;;;6.20
70533;BMP180;58088;51.186;17.130;2023-02-02T01:53:01;99476.20;;;6.20
70533;BMP180;58088;51.186;17.130;2023-02-02T01:55:31;99472.00;;;6.20
70533;BMP180;58088;51.186;17.130;2023-02-02T01:58:10;99470.20;;;6.20
70533;BMP180;58088;51.186;17.130;2023-02-02T02:00:41;99468.20;;;6.26
70533;BMP180;58088;51.186;17.130;2023-02-02T02:03:14;99467.40;;;6.30
70533;BMP180;58088;51.186;17.130;2023-02-02T02:05:51;99468.00;;;6.30
70533;BMP180;58088;51.186;17.130;2023-02-02T02:08:32;99465.20;;;6.30
70533;BMP180;58088;51.186;17.130;2023-02-02T02:10:59;99470.40;;;6.30
70533;BMP180;58088;51.186;17.130;2023-02-02T02:13:27;99461.80;;;6.30
70533;BMP180;58088;51.186;17.130;2023-02-02T02:32:47;99451.20;;;6.30
70533;BMP180;58088;51.186;17.130;2023-02-02T02:36:34;99447.40;;;6.30
70533;BMP180;58088;51.186;17.130;2023-02-02T02:38:41;99447.60;;;6.30
70533;BMP180;58088;51.186;17.130;2023-02-02T02:41:20;99445.40;;;6.30
70533;BMP180;58088;51.186;17.130;2023-02-02T02:43:58;99444.40;;;6.30
70533;BMP180;58088;51.186;17.130;2023-02-02T02:46:26;99437.60;;;6.40
70533;BMP180;58088;51.186;17.130;2023-02-02T02:48:57;99437.40;;;6.40
70533;BMP180;58088;51.186;17.130;2023-02-02T02:51:51;99437.20;;;6.38
70533;BMP180;58088;51.186;17.130;2023-02-02T02:54:58;99431.80;;;6.40
70533;BMP180;58088;51.186;17.130;2023-02-02T02:57:43;99433.80;;;6.40
70533;BMP180;58088;51.186;17.130;2023-02-02T03:00:52;99431.00;;;6.40
70533;BMP180;58088;51.186;17.130;2023-02-02T03:06:16;99432.20;;;6.50
70533;BMP180;58088;51.186;17.130;2023-02-02T03:08:53;99425.80;;;6.50
70533;BMP180;58088;51.186;17.130;2023-02-02T03:11:20;99425.00;;;6.50
70533;BMP180;58088;51.186;17.130;2023-02-02T03:13:47;99417.40;;;6.50
70533;BMP180;58088;51.186;17.130;2023-02-02T03:16:15;99416.00;;;6.50
70533;BMP180;58088;51.186;17.130;2023-02-02T03:18:42;99409.60;;;6.50
70533;BMP180;58088;51.186;17.130;2023-02-02T03:21:10;99402.40;;;6.50
70533;BMP180;58088;51.186;17.130;2023-02-02T03:23:37;99398.00;;;6.50
70533;BMP180;58088;51.186;17.130;2023-02-02T03:26:04;99388.40;;;6.50
70533;BMP180;58088;51.186;17.130;2023-02-02T03:28:31;99382.00;;;6.60
70533;BMP180;58088;51.186;17.130;2023-02-02T03:30:59;99381.80;;;6.60
70533;BMP180;58088;51.186;17.130;2023-02-02T03:33:26;99374.00;;;6.60
70533;BMP180;58088;51.186;17.130;2023-02-02T03:35:53;99381.00;;;6.60
70533;BMP180;58088;51.186;17.130;2023-02-02T03:38:19;99368.00;;;6.60
70533;BMP180;58088;51.186;17.130;2023-02-02T03:40:45;99355.80;;;6.58
70533;BMP180;58088;51.186;17.130;2023-02-02T03:43:11;99363.00;;;6.60
70533;BMP180;58088;51.186;17.130;2023-02-02T03:45:37;99362.00;;;6.60
70533;BMP180;58088;51.186;17.130;2023-02-02T03:48:06;99359.20;;;6.60
70533;BMP180;58088;51.186;17.130;2023-02-02T03:50:33;99349.40;;;6.60
70533;BMP180;58088;51.186;17.130;2023-02-02T03:52:59;99352.00;;;6.60
70533;BMP180;58088;51.186;17.130;2023-02-02T03:55:25;99361.20;;;6.60
70533;BMP180;58088;51.186;17.130;2023-02-02T03:57:51;99357.00;;;6.60
70533;BMP180;58088;51.186;17.130;2023-02-02T04:00:18;99351.60;;;6.60
70533;BMP180;58088;51.186;17.130;2023-02-02T04:02:44;99357.60;;;6.60
70533;BMP180;58088;51.186;17.130;2023-02-02T04:05:10;99354.20;;;6.60
70533;BMP180;58088;51.186;17.130;2023-02-02T04:07:36;99349.80;;;6.60
70533;BMP180;58088;51.186;17.130;2023-02-02T04:10:04;99348.20;;;6.60
70533;BMP180;58088;51.186;17.130;2023-02-02T04:12:30;99351.60;;;6.60
70533;BMP180;58088;51.186;17.130;2023-02-02T04:14:56;99350.40;;;6.60
70533;BMP180;58088;51.186;17.130;2023-02-02T04:17:22;99354.20;;;6.50
70533;BMP180;58088;51.186;17.130;2023-02-02T04:19:48;99348.00;;;6.60
70533;BMP180;58088;51.186;17.130;2023-02-02T04:22:14;99348.60;;;6.60
70533;BMP180;58088;51.186;17.130;2023-02-02T04:24:40;99345.40;;;6.60
70533;BMP180;58088;51.186;17.130;2023-02-02T04:27:07;99343.00;;;6.60
70533;BMP180;58088;51.186;17.130;2023-02-02T04:29:33;99339.80;;;6.60
70533;BMP180;58088;51.186;17.130;2023-02-02T04:31:59;99349.20;;;6.70
70533;BMP180;58088;51.186;17.130;2023-02-02T04:34:25;99346.20;;;6.70
70533;BMP180;58088;51.186;17.130;2023-02-02T04:36:52;99347.60;;;6.70
70533;BMP180;58088;51.186;17.130;2023-02-02T04:39:19;99351.40;;;6.70
70533;BMP180;58088;51.186;17.130;2023-02-02T04:41:45;99350.20;;;6.70
70533;BMP180;58088;51.186;17.130;2023-02-02T04:44:15;99352.40;;;6.70
70533;BMP180;58088;51.186;17.130;2023-02-02T04:46:44;99349.40;;;6.76
70533;BMP180;58088;51.186;17.130;2023-02-02T04:49:11;99345.00;;;6.74
70533;BMP180;58088;51.186;17.130;2023-02-02T04:51:38;99349.00;;;6.80
70533;BMP180;58088;51.186;17.130;2023-02-02T04:54:06;99349.40;;;6.80
70533;BMP180;58088;51.186;17.130;2023-02-02T04:56:33;99339.20;;;6.80
70533;BMP180;58088;51.186;17.130;2023-02-02T04:58:59;99339.60;;;6.80
70533;BMP180;58088;51.186;17.130;2023-02-02T05:01:26;99335.20;;;6.80
70533;BMP180;58088;51.186;17.130;2023-02-02T05:03:52;99328.00;;;6.72
70533;BMP180;58088;51.186;17.130;2023-02-02T05:06:18;99336.20;;;6.80
70533;BMP180;58088;51.186;17.130;2023-02-02T05:08:45;99340.40;;;6.80
70533;BMP180;58088;51.186;17.130;2023-02-02T05:11:17;99342.40;;;6.80
70533;BMP180;58088;51.186;17.130;2023-02-02T05:13:52;99337.80;;;6.80
70533;BMP180;58088;51.186;17.130;2023-02-02T05:16:20;99342.00;;;6.90
70533;BMP180;58088;51.186;17.130;2023-02-02T05:18:49;99338.60;;;6.80
70533;BMP180;58088;51.186;17.130;2023-02-02T05:21:16;99342.40;;;6.80
70533;BMP180;58088;51.186;17.130;2023-02-02T05:23:42;99347.00;;;6.86
70533;BMP180;58088;51.186;17.130;2023-02-02T05:26:24;99335.40;;;6.90
70533;BMP180;58088;51.186;17.130;2023-02-02T05:28:52;99337.80;;;6.86
70533;BMP180;58088;51.186;17.130;2023-02-02T05:31:19;99342.40;;;6.90
70533;BMP180;58088;51.186;17.130;2023-02-02T05:33:45;99341.20;;;6.84
70533;BMP180;58088;51.186;17.130;2023-02-02T05:36:12;99349.40;;;6.88
70533;BMP180;58088;51.186;17.130;2023-02-02T05:38:38;99346.20;;;6.90
70533;BMP180;58088;51.186;17.130;2023-02-02T05:41:04;99350.60;;;6.82
70533;BMP180;58088;51.186;17.130;2023-02-02T05:43:32;99354.20;;;6.82
70533;BMP180;58088;51.186;17.130;2023-02-02T05:45:59;99353.40;;;6.80
70533;BMP180;58088;51.186;17.130;2023-02-02T05:48:25;99363.80;;;6.80
70533;BMP180;58088;51.186;17.130;2023-02-02T05:51:26;99367.20;;;6.80
70533;BMP180;58088;51.186;17.130;2023-02-02T05:53:53;99362.40;;;6.78
70533;BMP180;58088;51.186;17.130;2023-02-02T05:56:20;99366.60;;;6.70
70533;BMP180;58088;51.186;17.130;2023-02-02T05:58:46;99359.80;;;6.70
70533;BMP180;58088;51.186;17.130;2023-02-02T06:01:16;99376.20;;;6.70
70533;BMP180;58088;51.186;17.130;2023-02-02T06:03:43;99364.80;;;6.70
70533;BMP180;58088;51.186;17.130;2023-02-02T06:06:09;99391.80;;;6.70
70533;BMP180;58088;51.186;17.130;2023-02-02T06:08:35;99393.60;;;6.70
70533;BMP180;58088;51.186;17.130;2023-02-02T06:11:14;99390.40;;;6.70
70533;BMP180;58088;51.186;17.130;2023-02-02T06:13:41;99401.60;;;6.70
70533;BMP180;58088;51.186;17.130;2023-02-02T06:16:08;99400.40;;;6.60
70533;BMP180;58088;51.186;17.130;2023-02-02T06:18:35;99403.40;;;6.60
70533;BMP180;58088;51.186;17.130;2023-02-02T06:21:04;99406.20;;;6.60
70533;BMP180;58088;51.186;17.130;2023-02-02T06:23:32;99393.40;;;6.60
70533;BMP180;58088;51.186;17.130;2023-02-02T06:25:58;99412.00;;;6.60
70533;BMP180;58088;51.186;17.130;2023-02-02T06:28:25;99410.60;;;6.60
70533;BMP180;58088;51.186;17.130;2023-02-02T06:30:51;99401.40;;;6.50
70533;BMP180;58088;51.186;17.130;2023-02-02T06:33:17;99400.40;;;6.50
70533;BMP180;58088;51.186;17.130;2023-02-02T06:35:43;99401.40;;;6.50
70533;BMP180;58088;51.186;17.130;2023-02-02T06:38:10;99406.60;;;6.50
70533;BMP180;58088;51.186;17.130;2023-02-02T06:40:36;99414.80;;;6.50
70533;BMP180;58088;51.186;17.130;2023-02-02T06:43:03;99415.20;;;6.58
70533;BMP180;58088;51.186;17.130;2023-02-02T06:45:29;99421.80;;;6.56
70533;BMP180;58088;51.186;17.130;2023-02-02T06:48:00;99423.80;;;6.60
70533;BMP180;58088;51.186;17.130;2023-02-02T06:50:29;99422.20;;;6.56
70533;BMP180;58088;51.186;17.130;2023-02-02T06:52:55;99436.80;;;6.60
70533;BMP180;58088;51.186;17.130;2023-02-02T06:55:21;99431.00;;;6.60
70533;BMP180;58088;51.186;17.130;2023-02-02T06:57:48;99434.80;;;6.50
70533;BMP180;58088;51.186;17.130;2023-02-02T07:00:20;99448.20;;;6.52
70533;BMP180;58088;51.186;17.130;2023-02-02T07:02:47;99447.00;;;6.54
70533;BMP180;58088;51.186;17.130;2023-02-02T07:05:13;99443.00;;;6.50
70533;BMP180;58088;51.186;17.130;2023-02-02T07:07:39;99448.20;;;6.50
70533;BMP180;58088;51.186;17.130;2023-02-02T07:10:06;99453.00;;;6.50
70533;BMP180;58088;51.186;17.130;2023-02-02T07:12:33;99459.20;;;6.50
70533;BMP180;58088;51.186;17.130;2023-02-02T07:14:59;99460.80;;;6.52
70533;BMP180;58088;51.186;17.130;2023-02-02T07:17:25;99476.40;;;6.50
70533;BMP180;58088;51.186;17.130;2023-02-02T07:19:51;99468.40;;;6.52
70533;BMP180;58088;51.186;17.130;2023-02-02T07:22:17;99489.20;;;6.60
70533;BMP180;58088;51.186;17.130;2023-02-02T07:24:44;99489.20;;;6.60
70533;BMP180;58088;51.186;17.130;2023-02-02T07:27:10;99484.40;;;6.60
70533;BMP180;58088;51.186;17.130;2023-02-02T07:29:37;99495.20;;;6.60
70533;BMP180;58088;51.186;17.130;2023-02-02T07:32:03;99493.60;;;6.62
70533;BMP180;58088;51.186;17.130;2023-02-02T07:34:29;99499.00;;;6.66
70533;BMP180;58088;51.186;17.130;2023-02-02T07:36:57;99505.60;;;6.60
70533;BMP180;58088;51.186;17.130;2023-02-02T07:39:23;99504.00;;;6.62
70533;BMP180;58088;51.186;17.130;2023-02-02T07:41:49;99513.00;;;6.70
70533;BMP180;58088;51.186;17.130;2023-02-02T07:44:23;99513.80;;;6.70
70533;BMP180;58088;51.186;17.130;2023-02-02T07:46:49;99518.00;;;6.70
70533;BMP180;58088;51.186;17.130;2023-02-02T07:49:17;99527.00;;;6.70
70533;BMP180;58088;51.186;17.130;2023-02-02T07:51:43;99525.60;;;6.80
70533;BMP180;58088;51.186;17.130;2023-02-02T07:54:10;99529.00;;;6.80
70533;BMP180;58088;51.186;17.130;2023-02-02T07:56:37;99530.80;;;6.80
70533;BMP180;58088;51.186;17.130;2023-02-02T07:59:04;99529.00;;;6.80
70533;BMP180;58088;51.186;17.130;2023-02-02T08:01:31;99539.20;;;6.80
70533;BMP180;58088;51.186;17.130;2023-02-02T08:03:58;99546.80;;;6.80
70533;BMP180;58088;51.186;17.130;2023-02-02T08:06:37;99549.80;;;6.80
70533;BMP180;58088;51.186;17.130;2023-02-02T08:09:06;99556.60;;;6.80
70533;BMP180;58088;51.186;17.130;2023-02-02T08:11:35;99555.40;;;6.80
70533;BMP180;58088;51.186;17.130;2023-02-02T08:14:04;99562.20;;;6.80
70533;BMP180;58088;51.186;17.130;2023-02-02T08:16:32;99576.40;;;6.90
70533;BMP180;58088;51.186;17.130;2023-02-02T08:18:59;99585.40;;;7.00
70533;BMP180;58088;51.186;17.130;2023-02-02T08:21:25;99579.60;;;7.00
70533;BMP180;58088;51.186;17.130;2023-02-02T08:23:52;99580.00;;;7.00
70533;BMP180;58088;51.186;17.130;2023-02-02T08:26:25;99596.80;;;7.00
70533;BMP180;58088;51.186;17.130;2023-02-02T08:29:11;99601.40;;;7.00
70533;BMP180;58088;51.186;17.130;2023-02-02T08:31:39;99607.20;;;6.90
70533;BMP180;58088;51.186;17.130;2023-02-02T08:34:10;99611.40;;;7.00
70533;BMP180;58088;51.186;17.130;2023-02-02T08:36:37;99611.40;;;7.00
70533;BMP180;58088;51.186;17.130;2023-02-02T08:39:09;99622.20;;;7.10
70533;BMP180;58088;51.186;17.130;2023-02-02T08:41:36;99622.80;;;7.20
70533;BMP180;58088;51.186;17.130;2023-02-02T08:44:13;99634.80;;;7.30
70533;BMP180;58088;51.186;17.130;2023-02-02T08:46:41;99644.20;;;7.40
70533;BMP180;58088;51.186;17.130;2023-02-02T08:49:11;99633.80;;;7.50
70533;BMP180;58088;51.186;17.130;2023-02-02T08:51:38;99639.20;;;7.60
70533;BMP180;58088;51.186;17.130;2023-02-02T08:54:04;99628.40;;;7.70
70533;BMP180;58088;51.186;17.130;2023-02-02T08:56:30;99650.60;;;7.80
70533;BMP180;58088;51.186;17.130;2023-02-02T08:58:57;99651.40;;;7.80
70533;BMP180;58088;51.186;17.130;2023-02-02T09:01:30;99656.20;;;7.80
70533;BMP180;58088;51.186;17.130;2023-02-02T09:04:13;99668.80;;;7.82
70533;BMP180;58088;51.186;17.130;2023-02-02T09:06:41;99675.80;;;7.80
70533;BMP180;58088;51.186;17.130;2023-02-02T09:09:13;99678.20;;;7.80
70533;BMP180;58088;51.186;17.130;2023-02-02T09:11:40;99679.00;;;7.80
70533;BMP180;58088;51.186;17.130;2023-02-02T09:14:07;99685.40;;;7.80
70533;BMP180;58088;51.186;17.130;2023-02-02T09:16:35;99698.80;;;7.90
70533;BMP180;58088;51.186;17.130;2023-02-02T09:19:02;99697.00;;;7.90
70533;BMP180;58088;51.186;17.130;2023-02-02T09:21:29;99702.80;;;7.80
70533;BMP180;58088;51.186;17.130;2023-02-02T09:23:55;99708.00;;;7.90
70533;BMP180;58088;51.186;17.130;2023-02-02T09:26:27;99721.40;;;7.90
70533;BMP180;58088;51.186;17.130;2023-02-02T09:28:57;99720.20;;;7.80
70533;BMP180;58088;51.186;17.130;2023-02-02T09:31:25;99725.80;;;7.80
70533;BMP180;58088;51.186;17.130;2023-02-02T09:33:52;99728.60;;;7.80
70533;BMP180;58088;51.186;17.130;2023-02-02T09:36:21;99737.20;;;7.78
70533;BMP180;58088;51.186;17.130;2023-02-02T09:38:50;99736.40;;;7.80
70533;BMP180;58088;51.186;17.130;2023-02-02T09:42:06;99743.60;;;7.90
70533;BMP180;58088;51.186;17.130;2023-02-02T09:44:43;99746.20;;;7.90
70533;BMP180;58088;51.186;17.130;2023-02-02T09:47:23;99746.20;;;7.90
70533;BMP180;58088;51.186;17.130;2023-02-02T09:58:09;99751.20;;;8.02
70533;BMP180;58088;51.186;17.130;2023-02-02T10:03:26;99755.20;;;8.20
70533;BMP180;58088;51.186;17.130;2023-02-02T10:08:56;99744.60;;;8.56
70533;BMP180;58088;51.186;17.130;2023-02-02T10:11:33;99756.00;;;8.70
70533;BMP180;58088;51.186;17.130;2023-02-02T10:14:16;99758.80;;;8.70
70533;BMP180;58088;51.186;17.130;2023-02-02T10:16:45;99768.40;;;8.70
70533;BMP180;58088;51.186;17.130;2023-02-02T10:19:14;99765.60;;;8.80
70533;BMP180;58088;51.186;17.130;2023-02-02T10:22:04;99775.20;;;8.70
70533;BMP180;58088;51.186;17.130;2023-02-02T10:24:32;99766.00;;;8.78
70533;BMP180;58088;51.186;17.130;2023-02-02T10:27:49;99775.40;;;8.96
70533;BMP180;58088;51.186;17.130;2023-02-02T10:30:30;99774.20;;;9.20
70533;BMP180;58088;51.186;17.130;2023-02-02T10:36:43;99781.00;;;9.50
70533;BMP180;58088;51.186;17.130;2023-02-02T10:45:47;99783.00;;;9.20
70533;BMP180;58088;51.186;17.130;2023-02-02T10:48:19;99780.80;;;9.20
70533;BMP180;58088;51.186;17.130;2023-02-02T10:50:54;99783.40;;;9.10
70533;BMP180;58088;51.186;17.130;2023-02-02T10:53:23;99799.20;;;9.18
70533;BMP180;58088;51.186;17.130;2023-02-02T10:55:59;99800.60;;;9.20
70533;BMP180;58088;51.186;17.130;2023-02-02T10:58:59;99806.80;;;9.34
70533;BMP180;58088;51.186;17.130;2023-02-02T11:01:26;99826.40;;;9.40
70533;BMP180;58088;51.186;17.130;2023-02-02T11:03:52;99812.60;;;9.50
70533;BMP180;58088;51.186;17.130;2023-02-02T11:06:38;99825.40;;;9.60
70533;BMP180;58088;51.186;17.130;2023-02-02T11:09:20;99823.20;;;9.78
70533;BMP180;58088;51.186;17.130;2023-02-02T11:11:53;99828.00;;;9.90
70533;BMP180;58088;51.186;17.130;2023-02-02T11:14:30;99830.80;;;10.06
70533;BMP180;58088;51.186;17.130;2023-02-02T11:17:05;99836.60;;;10.00
70533;BMP180;58088;51.186;17.130;2023-02-02T11:19:34;99836.60;;;9.94
70533;BMP180;58088;51.186;17.130;2023-02-02T11:22:02;99835.60;;;10.00
70533;BMP180;58088;51.186;17.130;2023-02-02T11:29:41;99842.00;;;9.78
70533;BMP180;58088;51.186;17.130;2023-02-02T11:35:12;99845.80;;;9.88
70533;BMP180;58088;51.186;17.130;2023-02-02T11:37:57;99851.00;;;10.00
70533;BMP180;58088;51.186;17.130;2023-02-02T11:40:45;99852.40;;;10.00
70533;BMP180;58088;51.186;17.130;2023-02-02T11:46:03;99856.60;;;9.80
70533;BMP180;58088;51.186;17.130;2023-02-02T11:48:34;99864.80;;;9.60
70533;BMP180;58088;51.186;17.130;2023-02-02T11:51:02;99865.60;;;9.50
70533;BMP180;58088;51.186;17.130;2023-02-02T11:53:30;99881.60;;;9.40
70533;BMP180;58088;51.186;17.130;2023-02-02T11:56:17;99885.40;;;9.30
70533;BMP180;58088;51.186;17.130;2023-02-02T11:59:03;99880.80;;;9.10
70533;BMP180;58088;51.186;17.130;2023-02-02T12:01:37;99883.00;;;9.00
70533;BMP180;58088;51.186;17.130;2023-02-02T12:06:42;99887.80;;;9.10
70533;BMP180;58088;51.186;17.130;2023-02-02T12:09:24;99890.60;;;9.08
70533;BMP180;58088;51.186;17.130;2023-02-02T12:12:05;99899.40;;;9.00
70533;BMP180;58088;51.186;17.130;2023-02-02T12:22:52;99913.20;;;8.80
70533;BMP180;58088;51.186;17.130;2023-02-02T12:37:03;99934.00;;;8.30
70533;BMP180;58088;51.186;17.130;2023-02-02T12:42:49;99935.60;;;8.30
70533;BMP180;58088;51.186;17.130;2023-02-02T13:05:35;99985.20;;;7.90
70533;BMP180;58088;51.186;17.130;2023-02-02T13:08:32;100001.60;;;7.70
70533;BMP180;58088;51.186;17.130;2023-02-02T13:11:10;100004.80;;;7.50
70533;BMP180;58088;51.186;17.130;2023-02-02T13:16:37;99999.40;;;7.18
70533;BMP180;58088;51.186;17.130;2023-02-02T13:19:14;100011.40;;;7.00
70533;BMP180;58088;51.186;17.130;2023-02-02T13:21:47;100013.80;;;6.80
70533;BMP180;58088;51.186;17.130;2023-02-02T13:24:22;100023.20;;;6.60
70533;BMP180;58088;51.186;17.130;2023-02-02T13:26:50;100024.40;;;6.42
70533;BMP180;58088;51.186;17.130;2023-02-02T13:29:40;100040.80;;;6.32
70533;BMP180;58088;51.186;17.130;2023-02-02T13:32:31;100034.80;;;6.20
70533;BMP180;58088;51.186;17.130;2023-02-02T13:35:32;100041.60;;;6.20
70533;BMP180;58088;51.186;17.130;2023-02-02T13:38:29;100054.40;;;6.10
70533;BMP180;58088;51.186;17.130;2023-02-02T13:41:00;100059.00;;;6.02
70533;BMP180;58088;51.186;17.130;2023-02-02T13:46:28;100058.60;;;6.00
70533;BMP180;58088;51.186;17.130;2023-02-02T13:58:17;100093.00;;;5.90
70533;BMP180;58088;51.186;17.130;2023-02-02T14:00:59;100095.20;;;5.80
70533;BMP180;58088;51.186;17.130;2023-02-02T14:06:18;100077.40;;;5.80
70533;BMP180;58088;51.186;17.130;2023-02-02T14:08:56;100088.80;;;5.90
70533;BMP180;58088;51.186;17.130;2023-02-02T14:11:37;100088.00;;;5.90
70533;BMP180;58088;51.186;17.130;2023-02-02T14:14:19;100093.40;;;5.90
70533;BMP180;58088;51.186;17.130;2023-02-02T14:32:30;100123.00;;;6.30
70533;BMP180;58088;51.186;17.130;2023-02-02T14:43:38;100146.80;;;6.30
70533;BMP180;58088;51.186;17.130;2023-02-02T14:48:46;100151.80;;;6.20
70533;BMP180;58088;51.186;17.130;2023-02-02T14:51:16;100150.60;;;6.20
70533;BMP180;58088;51.186;17.130;2023-02-02T14:53:57;100162.80;;;6.10
70533;BMP180;58088;51.186;17.130;2023-02-02T14:56:45;100160.60;;;6.10
70533;BMP180;58088;51.186;17.130;2023-02-02T14:59:28;100171.40;;;6.00
70533;BMP180;58088;51.186;17.130;2023-02-02T15:02:01;100172.80;;;6.00
70533;BMP180;58088;51.186;17.130;2023-02-02T15:04:31;100180.20;;;6.00
70533;BMP180;58088;51.186;17.130;2023-02-02T15:09:54;100188.40;;;5.94
70533;BMP180;58088;51.186;17.130;2023-02-02T15:12:35;100191.60;;;5.90
70533;BMP180;58088;51.186;17.130;2023-02-02T15:15:14;100195.00;;;5.90
70533;BMP180;58088;51.186;17.130;2023-02-02T15:17:49;100208.20;;;5.90
70533;BMP180;58088;51.186;17.130;2023-02-02T15:20:35;100211.60;;;5.96
70533;BMP180;58088;51.186;17.130;2023-02-02T15:23:28;100221.80;;;5.90
70533;BMP180;58088;51.186;17.130;2023-02-02T15:26:18;100224.80;;;6.00
70533;BMP180;58088;51.186;17.130;2023-02-02T15:28:58;100223.80;;;6.00
70533;BMP180;58088;51.186;17.130;2023-02-02T15:34:21;100234.00;;;6.00
70533;BMP180;58088;51.186;17.130;2023-02-02T15:36:56;100235.60;;;5.90
70533;BMP180;58088;51.186;17.130;2023-02-02T15:39:36;100238.60;;;5.90
70533;BMP180;58088;51.186;17.130;2023-02-02T15:42:20;100263.80;;;5.90
70533;BMP180;58088;51.186;17.130;2023-02-02T15:48:29;100288.20;;;5.90
70533;BMP180;58088;51.186;17.130;2023-02-02T15:51:02;100277.80;;;5.90
70533;BMP180;58088;51.186;17.130;2023-02-02T15:53:47;100289.80;;;5.90
70533;BMP180;58088;51.186;17.130;2023-02-02T15:56:40;100301.80;;;5.90
70533;BMP180;58088;51.186;17.130;2023-02-02T15:59:23;100310.20;;;5.90
70533;BMP180;58088;51.186;17.130;2023-02-02T16:04:37;100334.00;;;5.90
70533;BMP180;58088;51.186;17.130;2023-02-02T16:07:11;100353.40;;;5.84
70533;BMP180;58088;51.186;17.130;2023-02-02T16:09:40;100362.60;;;5.80
70533;BMP180;58088;51.186;17.130;2023-02-02T16:12:17;100366.40;;;5.66
70533;BMP180;58088;51.186;17.130;2023-02-02T16:14:47;100369.80;;;5.60
70533;BMP180;58088;51.186;17.130;2023-02-02T16:17:43;100365.00;;;5.58
70533;BMP180;58088;51.186;17.130;2023-02-02T16:20:14;100380.20;;;5.50
70533;BMP180;58088;51.186;17.130;2023-02-02T16:22:48;100393.80;;;5.50
70533;BMP180;58088;51.186;17.130;2023-02-02T16:25:20;100403.60;;;5.48
70533;BMP180;58088;51.186;17.130;2023-02-02T16:27:48;100409.60;;;5.40
70533;BMP180;58088;51.186;17.130;2023-02-02T16:30:29;100419.80;;;5.40
70533;BMP180;58088;51.186;17.130;2023-02-02T16:32:56;100427.20;;;5.36
70533;BMP180;58088;51.186;17.130;2023-02-02T16:35:37;100426.60;;;5.40
70533;BMP180;58088;51.186;17.130;2023-02-02T16:41:26;100447.20;;;5.38
70533;BMP180;58088;51.186;17.130;2023-02-02T16:43:53;100448.20;;;5.34
70533;BMP180;58088;51.186;17.130;2023-02-02T16:46:47;100449.80;;;5.30
70533;BMP180;58088;51.186;17.130;2023-02-02T16:49:23;100458.00;;;5.28
70533;BMP180;58088;51.186;17.130;2023-02-02T16:52:15;100462.60;;;5.30
70533;BMP180;58088;51.186;17.130;2023-02-02T16:54:55;100470.00;;;5.30
70533;BMP180;58088;51.186;17.130;2023-02-02T16:57:26;100473.00;;;5.30
70533;BMP180;58088;51.186;17.130;2023-02-02T16:59:59;100481.20;;;5.30
70533;BMP180;58088;51.186;17.130;2023-02-02T17:02:35;100490.40;;;5.20
70533;BMP180;58088;51.186;17.130;2023-02-02T17:05:17;100498.80;;;5.22
70533;BMP180;58088;51.186;17.130;2023-02-02T17:07:59;100498.80;;;5.20
70533;BMP180;58088;51.186;17.130;2023-02-02T17:10:39;100507.80;;;5.20
70533;BMP180;58088;51.186;17.130;2023-02-02T17:13:33;100506.00;;;5.14
70533;BMP180;58088;51.186;17.130;2023-02-02T17:16:02;100513.80;;;5.10
70533;BMP180;58088;51.186;17.130;2023-02-02T17:18:28;100516.40;;;5.08